Time;durP1;ratioP1;P1;durP2;ratioP2;P2;SDS_P1;SDS_P2;PMS_P1;PMS_P2;Temp;Humidity;BMP_temperature;BMP_pressure;BME280_temperature;BME280_humidity;BME280_pressure;Samples;Min_cycle;Max_cycle;Signal;HPM_P1;HPM_P2
2023/09/16 00:00:17;;;;;;;9.90;8.88;;;16.90;99.90;;;;;;5010580;28;20060;-77
2023/09/16 00:02:43;;;;;;;12.27;9.25;;;16.80;99.90;;;;;;5010971;28;20038;-77
2023/09/16 00:05:09;;;;;;;12.30;8.65;;;17.60;99.90;;;;;;5010460;28;20045;-77
2023/09/16 00:07:34;;;;;;;9.45;8.23;;;16.80;99.90;;;;;;5012815;28;20046;-77
2023/09/16 00:10:00;;;;;;;10.55;8.68;;;16.80;99.90;;;;;;5017029;28;20041;-77
2023/09/16 00:12:26;;;;;;;14.38;9.93;;;16.70;99.90;;;;;;5017185;28;20033;-77
2023/09/16 00:14:52;;;;;;;11.52;9.10;;;16.80;99.90;;;;;;5017066;28;20489;-77
2023/09/16 00:17:18;;;;;;;13.80;9.85;;;17.00;99.90;;;;;;5017271;28;20115;-77
2023/09/16 00:19:44;;;;;;;13.48;10.25;;;16.70;99.90;;;;;;5017060;28;20128;-78
2023/09/16 00:22:10;;;;;;;11.50;9.43;;;16.80;99.90;;;;;;5017034;28;20524;-77
2023/09/16 00:24:40;;;;;;;13.00;9.65;;;16.70;99.90;;;;;;5000933;28;20128;-77
2023/09/16 00:27:07;;;;;;;11.88;10.65;;;16.50;99.90;;;;;;5016723;28;20046;-77
2023/09/16 00:29:33;;;;;;;11.52;9.68;;;16.60;99.90;;;;;;5016910;28;20029;-77
2023/09/16 00:32:03;;;;;;;12.30;10.15;;;16.60;99.90;;;;;;5016870;28;20084;-77
2023/09/16 00:34:29;;;;;;;11.85;9.50;;;16.60;99.90;;;;;;5033597;28;20046;-77
2023/09/16 00:36:55;;;;;;;15.32;10.02;;;16.80;99.90;;;;;;5016836;28;20041;-77
2023/09/16 00:39:20;;;;;;;12.13;9.95;;;16.80;99.90;;;;;;5016726;28;20046;-77
2023/09/16 00:41:46;;;;;;;14.88;9.48;;;16.60;99.90;;;;;;5016836;28;20088;-77
2023/09/16 00:44:11;;;;;;;12.38;9.43;;;16.50;99.90;;;;;;5016883;28;20072;-77
2023/09/16 00:46:37;;;;;;;13.75;9.40;;;16.60;99.90;;;;;;5016618;28;20502;-77
2023/09/16 00:49:04;;;;;;;10.43;9.25;;;16.50;99.90;;;;;;5033203;28;20088;-77
2023/09/16 00:51:30;;;;;;;11.18;9.52;;;16.60;99.90;;;;;;5033250;28;20040;-77
2023/09/16 00:53:56;;;;;;;12.05;10.00;;;16.50;99.90;;;;;;5016746;28;20116;-77
2023/09/16 00:56:23;;;;;;;12.23;10.18;;;16.60;99.90;;;;;;5016662;28;20041;-77
2023/09/16 00:58:49;;;;;;;13.60;10.23;;;16.50;99.90;;;;;;5016897;28;20509;-77
2023/09/16 01:01:16;;;;;;;14.80;11.05;;;16.60;99.90;;;;;;5016611;28;20092;-77
2023/09/16 01:03:42;;;;;;;13.32;9.90;;;16.30;99.90;;;;;;5016648;28;20045;-77
2023/09/16 01:06:10;;;;;;;13.82;10.63;;;16.60;99.90;;;;;;5016521;28;20034;-77
2023/09/16 01:08:36;;;;;;;13.13;10.25;;;16.30;99.90;;;;;;5016439;28;20111;-77
2023/09/16 01:11:05;;;;;;;14.98;11.82;;;16.40;99.90;;;;;;5016618;28;20501;-77
2023/09/16 01:13:35;;;;;;;13.15;11.20;;;16.50;99.90;;;;;;5016647;28;20045;-77
2023/09/16 01:16:27;;;;;;;13.32;9.93;;;16.10;99.90;;;;;;5016601;28;20049;-77
2023/09/16 01:19:14;;;;;;;14.48;10.00;;;16.40;99.90;;;;;;5014266;28;20365;-77
2023/09/16 01:21:40;;;;;;;16.88;11.65;;;16.20;99.90;;;;;;5030218;28;20046;-77
2023/09/16 01:24:23;;;;;;;13.40;11.45;;;16.10;99.90;;;;;;5029913;28;20053;-77
2023/09/16 01:26:49;;;;;;;16.20;12.27;;;16.30;99.90;;;;;;5013244;28;20042;-77
2023/09/16 01:29:16;;;;;;;14.88;11.82;;;16.30;99.90;;;;;;5029738;28;20287;-77
2023/09/16 01:31:43;;;;;;;13.63;11.15;;;16.00;99.90;;;;;;5029712;28;20121;-77
2023/09/16 01:34:21;;;;;;;14.95;11.38;;;16.30;99.90;;;;;;5013179;28;20052;-77
2023/09/16 01:36:47;;;;;;;14.02;11.20;;;16.20;99.90;;;;;;5013067;28;20074;-77
2023/09/16 01:39:15;;;;;;;14.90;10.95;;;16.10;99.90;;;;;;5013322;28;20121;-76
2023/09/16 01:41:43;;;;;;;13.52;12.10;;;16.10;99.90;;;;;;5013582;28;20068;-77
2023/09/16 01:44:09;;;;;;;14.80;12.20;;;16.30;99.90;;;;;;5029592;28;20037;-77
2023/09/16 01:46:34;;;;;;;16.75;12.48;;;16.10;99.90;;;;;;5029553;28;20038;-77
2023/09/16 01:49:00;;;;;;;17.05;13.07;;;16.10;99.90;;;;;;5012599;28;20037;-77
2023/09/16 01:51:26;;;;;;;13.75;12.32;;;16.20;99.90;;;;;;5029530;28;20034;-77
2023/09/16 01:53:51;;;;;;;14.13;12.13;;;16.10;99.90;;;;;;4996593;28;20117;-77
2023/09/16 01:56:17;;;;;;;16.70;11.68;;;15.80;99.90;;;;;;5012759;28;20041;-77
2023/09/16 01:58:42;;;;;;;14.50;11.52;;;16.10;99.90;;;;;;5012507;28;20069;-77
2023/09/16 02:01:09;;;;;;;18.13;12.65;;;16.00;99.90;;;;;;5012703;28;20070;-77
2023/09/16 02:03:34;;;;;;;15.30;12.75;;;15.90;99.90;;;;;;5029116;28;20042;-77
2023/09/16 02:06:00;;;;;;;17.92;13.70;;;15.80;99.90;;;;;;5012431;28;20099;-77
2023/09/16 02:08:26;;;;;;;17.73;14.15;;;16.00;99.90;;;;;;5012336;28;20042;-77
2023/09/16 02:10:52;;;;;;;19.90;14.15;;;;;;;;;;5012501;28;20183;-77
2023/09/16 02:13:17;;;;;;;20.73;13.15;;;15.90;99.90;;;;;;5012506;28;20037;-77
2023/09/16 02:15:43;;;;;;;16.40;13.13;;;15.80;99.90;;;;;;5012427;28;20433;-77
2023/09/16 02:18:08;;;;;;;15.68;13.45;;;15.90;99.90;;;;;;5028573;28;20053;-77
2023/09/16 02:20:34;;;;;;;15.95;13.18;;;;;;;;;;5028633;28;20506;-77
2023/09/16 02:23:02;;;;;;;16.33;13.20;;;15.90;99.90;;;;;;5012564;28;20474;-77
2023/09/16 02:25:27;;;;;;;14.90;13.13;;;15.70;99.90;;;;;;5012360;28;20516;-77
2023/09/16 02:27:53;;;;;;;15.82;14.10;;;16.00;99.90;;;;;;5011985;28;20034;-77
2023/09/16 02:30:19;;;;;;;22.00;13.20;;;15.90;99.90;;;;;;5012006;28;20096;-77
2023/09/16 02:32:45;;;;;;;17.20;13.57;;;;;;;;;;5028613;28;20513;-77
2023/09/16 02:35:10;;;;;;;14.95;12.77;;;15.80;99.90;;;;;;5012281;28;20452;-77
2023/09/16 02:37:36;;;;;;;17.30;13.60;;;15.60;99.90;;;;;;5028348;28;20271;-77
2023/09/16 02:40:02;;;;;;;15.50;12.57;;;15.70;99.90;;;;;;5028678;28;20042;-77
2023/09/16 02:42:28;;;;;;;15.00;12.82;;;15.80;99.90;;;;;;5028484;28;20132;-77
2023/09/16 02:44:53;;;;;;;13.70;12.30;;;15.60;99.90;;;;;;5011856;28;20072;-77
2023/09/16 02:47:20;;;;;;;20.92;14.20;;;15.60;99.90;;;;;;5011481;28;20085;-77
2023/09/16 02:49:46;;;;;;;16.05;12.93;;;15.60;99.90;;;;;;5011609;28;20046;-77
2023/09/16 02:52:11;;;;;;;17.23;13.60;;;15.70;99.90;;;;;;5028501;28;20387;-77
2023/09/16 02:54:37;;;;;;;18.23;13.43;;;;;;;;;;5011811;28;20076;-77
2023/09/16 02:57:03;;;;;;;17.77;13.75;;;15.60;99.90;;;;;;5011393;28;20056;-77
2023/09/16 02:59:29;;;;;;;16.60;13.48;;;15.50;99.90;;;;;;5011760;28;20098;-77
2023/09/16 03:01:54;;;;;;;17.88;12.93;;;15.50;99.90;;;;;;5011595;28;20044;-77
2023/09/16 03:04:20;;;;;;;16.23;13.73;;;15.40;99.90;;;;;;5011421;28;20057;-77
2023/09/16 03:06:46;;;;;;;17.58;13.50;;;15.50;99.90;;;;;;5011483;28;20056;-77
2023/09/16 03:09:12;;;;;;;18.10;14.32;;;15.50;99.90;;;;;;5027649;28;20040;-77
2023/09/16 03:11:38;;;;;;;21.58;13.88;;;15.50;99.90;;;;;;5011720;28;20034;-77
2023/09/16 03:14:03;;;;;;;19.65;14.68;;;15.40;99.90;;;;;;5011450;28;20487;-77
2023/09/16 03:16:31;;;;;;;16.90;13.80;;;15.70;99.90;;;;;;5011500;28;20132;-77
2023/09/16 03:18:57;;;;;;;19.20;13.30;;;15.50;99.90;;;;;;5010868;28;20493;-77
2023/09/16 03:21:24;;;;;;;20.73;15.80;;;15.50;99.90;;;;;;5011320;28;20045;-77
2023/09/16 03:23:50;;;;;;;16.30;13.52;;;15.50;99.90;;;;;;5011268;28;20046;-77
2023/09/16 03:26:16;;;;;;;21.02;16.00;;;15.60;99.90;;;;;;5027581;28;20398;-77
2023/09/16 03:28:44;;;;;;;17.38;14.50;;;15.60;99.90;;;;;;5010933;28;20125;-77
2023/09/16 03:31:10;;;;;;;18.88;16.05;;;15.50;99.90;;;;;;5027556;28;20034;-77
2023/09/16 03:33:37;;;;;;;19.95;16.45;;;15.40;99.90;;;;;;5027424;28;20607;-77
2023/09/16 03:36:04;;;;;;;20.80;15.32;;;15.50;99.90;;;;;;5027732;28;20540;-77
2023/09/16 03:38:31;;;;;;;18.45;15.35;;;15.50;99.90;;;;;;5010619;28;20088;-77
2023/09/16 03:40:57;;;;;;;20.63;15.55;;;15.60;99.90;;;;;;5010994;28;20041;-77
2023/09/16 03:43:23;;;;;;;19.80;16.63;;;15.50;99.90;;;;;;5010703;28;20041;-77
2023/09/16 03:45:49;;;;;;;21.70;16.05;;;15.30;99.90;;;;;;5010892;28;20041;-77
2023/09/16 03:48:14;;;;;;;17.15;15.35;;;15.40;99.90;;;;;;5027065;28;20524;-77
2023/09/16 03:50:40;;;;;;;17.30;15.18;;;15.20;99.90;;;;;;5010710;28;20129;-77
2023/09/16 03:53:06;;;;;;;16.58;14.68;;;15.40;99.90;;;;;;5011044;28;20129;-77
2023/09/16 03:55:32;;;;;;;19.10;15.77;;;15.40;99.90;;;;;;5010995;28;20038;-77
2023/09/16 03:57:57;;;;;;;18.25;15.75;;;15.30;99.90;;;;;;4994165;28;20065;-77
2023/09/16 04:00:23;;;;;;;19.42;15.45;;;15.00;99.90;;;;;;5010577;28;20045;-77
2023/09/16 04:02:49;;;;;;;17.73;15.52;;;15.20;99.90;;;;;;5010683;28;20085;-77
2023/09/16 04:05:15;;;;;;;22.40;17.42;;;15.50;99.90;;;;;;5010622;28;20428;-77
2023/09/16 04:07:40;;;;;;;17.75;15.80;;;15.30;99.90;;;;;;5026749;28;20042;-77
2023/09/16 04:10:07;;;;;;;20.98;16.27;;;15.10;99.90;;;;;;5010819;28;20037;-77
2023/09/16 04:12:32;;;;;;;20.08;14.63;;;15.10;99.90;;;;;;5010605;28;20038;-77
2023/09/16 04:14:58;;;;;;;19.20;15.80;;;15.10;99.90;;;;;;5026958;28;20410;-77
2023/09/16 04:17:24;;;;;;;20.50;17.17;;;15.30;99.90;;;;;;5010278;28;20529;-77
2023/09/16 04:19:49;;;;;;;22.38;16.45;;;15.30;99.90;;;;;;5010511;28;20046;-77
2023/09/16 04:22:15;;;;;;;21.25;17.00;;;15.00;99.90;;;;;;5027014;28;20034;-77
2023/09/16 04:24:40;;;;;;;19.33;17.13;;;15.40;99.90;;;;;;5027220;28;20457;-77
2023/09/16 04:27:06;;;;;;;23.08;16.75;;;15.10;99.90;;;;;;5010176;28;20137;-77
2023/09/16 04:29:32;;;;;;;18.70;16.17;;;15.20;99.90;;;;;;5010370;28;20133;-77
2023/09/16 04:31:57;;;;;;;19.90;17.77;;;15.00;99.90;;;;;;5027081;28;20060;-77
2023/09/16 04:34:23;;;;;;;19.90;17.05;;;15.00;99.90;;;;;;5011282;28;20080;-77
2023/09/16 04:36:54;;;;;;;20.70;16.20;;;15.00;99.90;;;;;;5010332;28;20080;-77
2023/09/16 04:39:23;;;;;;;20.55;17.73;;;14.90;99.90;;;;;;5010181;28;20540;-77
2023/09/16 04:41:53;;;;;;;17.95;16.02;;;15.00;99.90;;;;;;5027027;28;20068;-77
2023/09/16 04:44:22;;;;;;;23.48;17.23;;;14.90;99.90;;;;;;5010232;28;20037;-77
2023/09/16 04:46:49;;;;;;;17.60;15.32;;;15.10;99.90;;;;;;5026568;28;20037;-77
2023/09/16 04:49:15;;;;;;;18.55;16.02;;;;;;;;;;5026497;28;20033;-77
2023/09/16 04:51:40;;;;;;;18.63;16.38;;;15.20;99.90;;;;;;4993934;28;20038;-76
2023/09/16 04:54:09;;;;;;;20.60;16.23;;;15.20;99.90;;;;;;5010870;28;20045;-77
2023/09/16 04:56:35;;;;;;;18.92;16.65;;;15.00;99.90;;;;;;5030829;28;20077;-77
2023/09/16 04:59:01;;;;;;;20.75;17.08;;;15.10;99.90;;;;;;5030069;28;20041;-77
2023/09/16 05:01:29;;;;;;;22.45;15.93;;;;;;;;;;5014097;28;20087;-77
2023/09/16 05:03:58;;;;;;;18.25;15.95;;;14.90;99.90;;;;;;5014582;28;20497;-77
2023/09/16 05:06:24;;;;;;;21.23;16.77;;;14.90;99.90;;;;;;5030824;28;20041;-77
2023/09/16 05:08:49;;;;;;;19.08;16.10;;;15.00;99.90;;;;;;5030079;28;20045;-77
2023/09/16 05:11:15;;;;;;;23.88;18.25;;;14.90;99.90;;;;;;5013646;28;20046;-77
2023/09/16 05:13:41;;;;;;;20.13;17.45;;;14.90;99.90;;;;;;5030297;28;20045;-77
2023/09/16 05:16:10;;;;;;;22.75;16.48;;;14.90;99.90;;;;;;5030343;28;20049;-77
2023/09/16 05:18:35;;;;;;;21.75;16.23;;;14.90;99.90;;;;;;5013245;28;20042;-77
2023/09/16 05:21:01;;;;;;;17.65;15.15;;;14.90;99.90;;;;;;5029974;28;20042;-77
2023/09/16 05:23:27;;;;;;;20.23;15.68;;;;;;;;;;5029972;28;20501;-77
2023/09/16 05:25:53;;;;;;;17.63;15.63;;;14.90;99.90;;;;;;4996918;28;20043;-76
2023/09/16 05:28:19;;;;;;;22.17;16.08;;;;;;;;;;5029674;28;20034;-77
2023/09/16 05:30:44;;;;;;;18.63;15.85;;;15.10;99.90;;;;;;5013362;28;20069;-76
2023/09/16 05:33:11;;;;;;;20.05;15.65;;;14.90;99.90;;;;;;5029807;28;20073;-77
2023/09/16 05:35:38;;;;;;;18.38;15.80;;;14.80;99.90;;;;;;5030001;28;20272;-77
2023/09/16 05:38:04;;;;;;;23.02;16.95;;;15.00;99.90;;;;;;5029757;28;20073;-77
2023/09/16 05:40:29;;;;;;;18.75;15.60;;;14.90;99.90;;;;;;5029374;28;20081;-77
2023/09/16 05:42:55;;;;;;;19.33;16.23;;;15.10;99.90;;;;;;5013137;28;20044;-77
2023/09/16 05:45:21;;;;;;;20.00;15.98;;;;;;;;;;5013048;28;20041;-77
2023/09/16 05:47:48;;;;;;;21.17;15.52;;;15.10;99.90;;;;;;5013073;28;20046;-77
2023/09/16 05:50:14;;;;;;;17.80;15.27;;;15.10;99.90;;;;;;5013328;28;20045;-77
2023/09/16 05:52:40;;;;;;;19.15;17.02;;;15.20;99.90;;;;;;5029688;28;20037;-77
2023/09/16 05:55:05;;;;;;;19.02;16.73;;;15.10;99.90;;;;;;5013053;28;20038;-77
2023/09/16 05:57:31;;;;;;;19.27;16.98;;;15.30;99.90;;;;;;5012642;28;20151;-77
2023/09/16 05:59:57;;;;;;;25.98;17.08;;;15.30;99.90;;;;;;5012794;28;20049;-77
2023/09/16 06:02:23;;;;;;;21.77;16.42;;;15.30;99.90;;;;;;5029240;28;20034;-77
2023/09/16 06:04:49;;;;;;;19.63;16.65;;;15.10;99.90;;;;;;5028682;28;20046;-77
2023/09/16 06:07:15;;;;;;;26.65;18.83;;;15.30;99.90;;;;;;5028789;28;20046;-77
2023/09/16 06:09:41;;;;;;;19.10;16.90;;;15.20;99.90;;;;;;5012435;28;20117;-77
2023/09/16 06:12:07;;;;;;;18.88;16.50;;;15.50;99.90;;;;;;5012519;28;20042;-76
2023/09/16 06:14:33;;;;;;;22.00;18.80;;;15.40;99.90;;;;;;5012806;28;20073;-76
2023/09/16 06:16:59;;;;;;;20.70;16.98;;;15.30;99.90;;;;;;5028912;28;20520;-76
2023/09/16 06:19:26;;;;;;;20.73;16.25;;;15.70;99.90;;;;;;5012392;28;20046;-76
2023/09/16 06:21:52;;;;;;;21.50;17.52;;;15.50;99.90;;;;;;5012636;28;20084;-77
2023/09/16 06:24:18;;;;;;;21.40;17.55;;;15.60;99.90;;;;;;5012269;28;20046;-77
2023/09/16 06:26:44;;;;;;;21.60;18.58;;;15.70;99.90;;;;;;5012120;28;20441;-77
2023/09/16 06:29:09;;;;;;;24.38;17.45;;;15.90;99.90;;;;;;5028428;28;20405;-77
2023/09/16 06:31:35;;;;;;;20.08;17.90;;;16.00;99.90;;;;;;5012441;28;20485;-77
2023/09/16 06:34:02;;;;;;;20.65;18.15;;;15.90;99.90;;;;;;5012301;28;20221;-77
2023/09/16 06:36:28;;;;;;;20.58;15.48;;;16.10;99.90;;;;;;5012065;28;20088;-77
2023/09/16 06:38:54;;;;;;;20.80;16.98;;;;;;;;;;5011908;28;20405;-77
2023/09/16 06:41:20;;;;;;;20.08;15.70;;;16.10;99.90;;;;;;4995739;28;20038;-77
2023/09/16 06:43:46;;;;;;;20.65;17.08;;;;;;;;;;5012016;28;20046;-77
2023/09/16 06:46:12;;;;;;;20.73;17.23;;;;;;;;;;4995534;28;20042;-77
2023/09/16 06:48:37;;;;;;;19.63;17.38;;;16.50;99.90;;;;;;5011792;28;20034;-77
2023/09/16 06:51:03;;;;;;;21.52;18.90;;;16.40;99.90;;;;;;5012160;28;20034;-77
2023/09/16 06:53:29;;;;;;;20.17;16.48;;;16.60;99.90;;;;;;5013629;28;20141;-76
2023/09/16 06:55:55;;;;;;;20.42;16.67;;;16.50;99.90;;;;;;5028537;28;20034;-77
2023/09/16 06:58:21;;;;;;;16.95;15.15;;;16.90;99.90;;;;;;5011487;28;20046;-77
2023/09/16 07:00:50;;;;;;;19.42;17.40;;;16.50;99.90;;;;;;5011930;28;20128;-76
2023/09/16 07:03:15;;;;;;;20.63;17.17;;;16.70;99.90;;;;;;5011614;28;20038;-76
2023/09/16 07:05:48;;;;;;;20.02;16.15;;;16.90;99.90;;;;;;5011603;28;20041;-77
2023/09/16 07:08:15;;;;;;;20.33;14.30;;;16.90;99.90;;;;;;5028039;28;20049;-77
2023/09/16 07:10:41;;;;;;;18.58;14.93;;;16.90;99.90;;;;;;5027838;28;20044;-76
2023/09/16 07:13:07;;;;;;;19.85;16.33;;;17.20;99.90;;;;;;5027891;28;20042;-76
2023/09/16 07:15:32;;;;;;;17.17;14.52;;;17.30;99.90;;;;;;5028239;28;20073;-77
2023/09/16 07:17:58;;;;;;;23.15;16.92;;;17.30;99.90;;;;;;5010322;28;20038;-77
2023/09/16 07:20:24;;;;;;;19.23;16.50;;;17.50;99.90;;;;;;5027649;28;20513;-77
2023/09/16 07:22:52;;;;;;;18.77;15.25;;;17.30;99.90;;;;;;5027659;28;20045;-76
2023/09/16 07:25:18;;;;;;;18.50;16.40;;;17.70;99.90;;;;;;5011653;28;20421;-76
2023/09/16 07:27:44;;;;;;;18.98;15.82;;;;;;;;;;5027274;28;20049;-76
2023/09/16 07:30:11;;;;;;;19.45;15.90;;;17.90;99.90;;;;;;5011060;28;20382;-76
2023/09/16 07:32:37;;;;;;;17.45;15.60;;;17.70;99.90;;;;;;5011364;28;20180;-76
2023/09/16 07:35:02;;;;;;;18.25;16.33;;;17.80;99.90;;;;;;5010964;28;20076;-77
2023/09/16 07:37:28;;;;;;;19.60;15.27;;;17.80;99.90;;;;;;5010723;28;20566;-77
2023/09/16 07:39:54;;;;;;;21.73;16.40;;;18.30;99.90;;;;;;5047316;22;20049;-69
2023/09/16 07:42:20;;;;;;;17.92;14.02;;;18.20;99.90;;;;;;5007903;28;20042;-69
2023/09/16 07:44:45;;;;;;;17.85;15.07;;;18.30;99.90;;;;;;5007854;28;20498;-68
2023/09/16 07:47:11;;;;;;;17.70;14.88;;;18.60;99.90;;;;;;4991050;28;20417;-69
2023/09/16 07:49:37;;;;;;;16.30;14.25;;;18.50;99.90;;;;;;4991341;28;20046;-69
2023/09/16 07:52:02;;;;;;;16.60;13.40;;;18.40;99.90;;;;;;4991731;28;20054;-69
2023/09/16 07:54:28;;;;;;;18.90;15.05;;;18.80;99.90;;;;;;4974944;28;20512;-69
2023/09/16 07:56:54;;;;;;;14.25;12.38;;;18.60;99.90;;;;;;4991241;28;20045;-69
2023/09/16 07:59:20;;;;;;;16.67;12.40;;;19.00;99.90;;;;;;4991092;28;20034;-69
2023/09/16 08:01:46;;;;;;;18.17;12.85;;;18.90;99.90;;;;;;4992506;28;20046;-69
2023/09/16 08:04:12;;;;;;;18.05;14.25;;;19.00;99.90;;;;;;4991306;28;20042;-69
2023/09/16 08:06:38;;;;;;;14.18;12.63;;;19.30;99.90;;;;;;4993191;28;20045;-69
2023/09/16 08:09:03;;;;;;;14.75;12.57;;;19.30;99.90;;;;;;4992789;28;20042;-69
2023/09/16 08:11:29;;;;;;;17.33;14.38;;;19.70;99.90;;;;;;4993229;28;20034;-69
2023/09/16 08:13:54;;;;;;;13.52;11.45;;;19.50;99.90;;;;;;4993198;28;20046;-69
2023/09/16 08:16:20;;;;;;;17.05;12.88;;;19.70;99.90;;;;;;4993099;28;20030;-68
2023/09/16 08:18:46;;;;;;;15.75;13.02;;;20.00;99.90;;;;;;4992732;28;20045;-68
2023/09/16 08:21:12;;;;;;;14.65;13.13;;;19.90;99.90;;;;;;4992236;28;20046;-68
2023/09/16 08:23:37;;;;;;;17.58;13.73;;;20.10;99.90;;;;;;5007671;28;20056;-68
2023/09/16 08:26:03;;;;;;;14.73;13.00;;;20.60;99.90;;;;;;4990995;28;20046;-69
2023/09/16 08:28:30;;;;;;;17.83;12.55;;;20.40;99.90;;;;;;4993493;28;20035;-69
2023/09/16 08:30:56;;;;;;;14.82;12.50;;;20.30;99.90;;;;;;4996730;28;20074;-69
2023/09/16 08:33:22;;;;;;;17.13;11.57;;;20.30;99.90;;;;;;5011642;28;20046;-69
2023/09/16 08:35:47;;;;;;;13.30;10.00;;;20.50;99.90;;;;;;4995083;28;20112;-69
2023/09/16 08:38:13;;;;;;;11.90;10.13;;;20.60;99.90;;;;;;4996073;28;20084;-69
2023/09/16 08:40:39;;;;;;;16.25;11.63;;;21.60;99.90;;;;;;4994911;28;20070;-69
2023/09/16 08:43:21;;;;;;;13.55;11.23;;;21.10;99.90;;;;;;4996405;28;20117;-69
2023/09/16 08:45:58;;;;;;;11.85;10.38;;;21.30;99.90;;;;;;4996210;28;20043;-69
2023/09/16 08:48:26;;;;;;;14.15;10.23;;;21.30;99.90;;;;;;4994659;28;20074;-69
2023/09/16 08:50:53;;;;;;;12.20;8.65;;;21.90;99.90;;;;;;5011166;28;20038;-69
2023/09/16 08:53:19;;;;;;;12.90;9.45;;;21.50;99.90;;;;;;4994776;28;20438;-70
2023/09/16 08:55:45;;;;;;;13.65;8.07;;;21.60;99.90;;;;;;4994794;28;20038;-70
2023/09/16 08:58:12;;;;;;;11.23;7.88;;;21.80;99.90;;;;;;4994480;28;20042;-70
2023/09/16 09:00:38;;;;;;;11.50;8.88;;;21.70;99.90;;;;;;4995682;28;20459;-69
2023/09/16 09:03:05;;;;;;;8.75;7.15;;;21.80;99.90;;;;;;4994892;28;20046;-70
2023/09/16 09:05:33;;;;;;;8.85;7.53;;;21.90;99.90;;;;;;4994700;28;20041;-70
2023/09/16 09:07:59;;;;;;;10.38;7.45;;;22.10;99.90;;;;;;4994595;28;20509;-70
2023/09/16 09:10:25;;;;;;;9.57;7.30;;;22.00;99.90;;;;;;4994778;28;20042;-70
2023/09/16 09:12:51;;;;;;;12.48;7.35;;;22.30;99.90;;;;;;4994399;28;20046;-69
2023/09/16 09:15:17;;;;;;;11.68;7.05;;;22.40;99.90;;;;;;4994355;28;20073;-69
2023/09/16 09:17:49;;;;;;;8.75;6.97;;;22.50;99.90;;;;;;4994060;28;20133;-69
2023/09/16 09:20:20;;;;;;;6.45;5.55;;;22.70;99.90;;;;;;4978057;28;20042;-70
2023/09/16 09:22:48;;;;;;;9.15;6.75;;;22.90;99.90;;;;;;4993880;28;20121;-69
2023/09/16 09:25:14;;;;;;;9.73;6.88;;;22.60;99.90;;;;;;4993771;28;20046;-70
2023/09/16 09:27:40;;;;;;;9.38;7.07;;;22.70;99.90;;;;;;4994950;28;20096;-69
2023/09/16 09:30:06;;;;;;;10.82;7.88;;;23.00;99.90;;;;;;4994752;28;20041;-70
2023/09/16 09:32:32;;;;;;;9.18;6.50;;;22.90;99.90;;;;;;4996749;28;20049;-70
2023/09/16 09:35:08;;;;;;;7.03;5.32;;;23.60;99.90;;;;;;4995625;28;20122;-69
2023/09/16 09:37:34;;;;;;;6.40;4.95;;;23.00;99.90;;;;;;4995389;28;20123;-70
2023/09/16 09:40:12;;;;;;;8.88;4.53;;;23.10;99.90;;;;;;4976504;28;20589;-70
2023/09/16 09:42:49;;;;;;;8.27;4.80;;;23.20;99.90;;;;;;4993737;28;20042;-70
2023/09/16 09:45:16;;;;;;;6.43;3.95;;;23.20;99.90;;;;;;4994040;28;20448;-70
2023/09/16 09:47:42;;;;;;;6.38;4.95;;;23.20;99.90;;;;;;4993251;28;20440;-69
2023/09/16 09:50:14;;;;;;;9.07;5.07;;;23.40;99.90;;;;;;4977110;28;20062;-69
2023/09/16 09:52:52;;;;;;;5.35;4.03;;;23.40;99.90;;;;;;4993433;28;20030;-70
2023/09/16 09:55:29;;;;;;;8.05;4.50;;;23.30;99.90;;;;;;4993469;28;20038;-70
2023/09/16 09:57:55;;;;;;;8.30;5.65;;;23.40;99.90;;;;;;4993328;28;20050;-70
2023/09/16 10:00:22;;;;;;;5.82;4.50;;;23.50;99.90;;;;;;4993318;28;20038;-70
2023/09/16 10:02:49;;;;;;;10.77;4.95;;;23.60;99.90;;;;;;4993300;28;20097;-70
2023/09/16 10:05:22;;;;;;;5.85;4.20;;;23.60;99.90;;;;;;4977752;28;20045;-69
2023/09/16 10:07:49;;;;;;;9.02;4.55;;;23.60;99.90;;;;;;4993160;28;20510;-69
2023/09/16 10:10:21;;;;;;;6.80;4.60;;;23.70;99.90;;;;;;4993399;28;20034;-69
2023/09/16 10:12:57;;;;;;;8.27;4.45;;;23.90;99.90;;;;;;4993509;28;20073;-69
2023/09/16 10:15:27;;;;;;;6.60;3.67;;;24.20;99.90;;;;;;4993069;28;20042;-70
2023/09/16 10:17:55;;;;;;;5.55;3.53;;;23.90;99.90;;;;;;4993274;28;20042;-69
2023/09/16 10:20:21;;;;;;;8.75;4.32;;;24.20;99.90;;;;;;4993253;28;20130;-69
2023/09/16 10:22:47;;;;;;;7.65;4.65;;;24.40;99.90;;;;;;4993290;28;20049;-69
2023/09/16 10:25:12;;;;;;;7.55;4.05;;;23.90;99.90;;;;;;4994193;28;20038;-69
2023/09/16 10:27:59;;;;;;;9.07;3.70;;;24.10;99.90;;;;;;4992429;28;20051;-69
2023/09/16 10:30:25;;;;;;;8.02;4.47;;;24.00;99.90;;;;;;4992664;28;20038;-70
2023/09/16 10:32:52;;;;;;;4.85;3.85;;;24.30;99.90;;;;;;4993926;28;20513;-70
2023/09/16 10:35:21;;;;;;;4.38;3.75;;;24.40;99.90;;;;;;4992659;28;20050;-70
2023/09/16 10:37:51;;;;;;;5.32;4.13;;;24.20;99.90;;;;;;4992571;28;20053;-70
2023/09/16 10:40:18;;;;;;;4.95;3.22;;;24.40;99.90;;;;;;4992483;28;20086;-69
2023/09/16 10:42:46;;;;;;;7.28;3.45;;;24.30;99.90;;;;;;4992807;28;20046;-70
2023/09/16 10:45:15;;;;;;;3.78;3.10;;;24.50;99.90;;;;;;4992617;28;20554;-70
2023/09/16 10:47:41;;;;;;;7.18;3.70;;;24.60;99.90;;;;;;4992274;28;20046;-70
2023/09/16 10:50:07;;;;;;;5.85;3.22;;;25.20;99.90;;;;;;4992221;28;20082;-69
2023/09/16 10:53:02;;;;;;;5.45;4.30;;;24.90;99.90;;;;;;4993292;28;20034;-69
2023/09/16 10:55:43;;;;;;;9.90;4.20;;;24.60;99.90;;;;;;4993565;28;20039;-69
2023/09/16 10:58:17;;;;;;;4.80;4.03;;;24.80;99.90;;;;;;4992256;28;20050;-69
2023/09/16 11:00:54;;;;;;;8.80;3.97;;;24.70;99.90;;;;;;4993357;28;20038;-69
2023/09/16 11:03:28;;;;;;;6.22;4.57;;;24.50;99.90;;;;;;4992368;28;20514;-70
2023/09/16 11:05:54;;;;;;;7.13;4.20;;;24.90;99.90;;;;;;4993234;28;20111;-69
2023/09/16 11:08:20;;;;;;;7.25;3.63;;;25.10;99.90;;;;;;4991862;28;20046;-70
2023/09/16 11:10:46;;;;;;;4.75;3.80;;;25.00;99.90;;;;;;4992143;28;20038;-70
2023/09/16 11:13:13;;;;;;;5.07;3.53;;;25.00;99.90;;;;;;4991922;28;20058;-69
2023/09/16 11:15:41;;;;;;;6.30;3.03;;;25.20;99.90;;;;;;4992251;28;20442;-70
2023/09/16 11:18:10;;;;;;;4.25;2.78;;;25.20;99.90;;;;;;4991590;28;20097;-69
2023/09/16 11:20:37;;;;;;;4.80;2.83;;;25.10;99.90;;;;;;4991701;28;20490;-69
2023/09/16 11:23:07;;;;;;;3.13;2.60;;;25.10;99.90;;;;;;4975638;28;20076;-70
2023/09/16 11:25:34;;;;;;;5.63;2.88;;;25.20;99.90;;;;;;4975832;28;20434;-69
2023/09/16 11:28:02;;;;;;;6.07;2.88;;;25.50;99.90;;;;;;4991250;28;20517;-70
2023/09/16 11:30:31;;;;;;;3.78;2.55;;;25.20;99.90;;;;;;4991599;28;20096;-70
2023/09/16 11:32:56;;;;;;;3.95;3.10;;;25.50;99.90;;;;;;4991615;28;20122;-70
2023/09/16 11:35:23;;;;;;;3.70;2.38;;;25.20;99.90;;;;;;4991780;28;20459;-69
2023/09/16 11:37:48;;;;;;;3.25;2.38;;;25.40;99.90;;;;;;4992497;28;20046;-69
2023/09/16 11:40:15;;;;;;;3.47;2.65;;;25.20;99.90;;;;;;4975314;28;20064;-69
2023/09/16 11:42:41;;;;;;;2.95;2.33;;;25.30;99.90;;;;;;4992557;28;20038;-69
2023/09/16 11:45:08;;;;;;;3.10;2.42;;;25.50;99.90;;;;;;4991430;28;20524;-70
2023/09/16 11:47:34;;;;;;;3.55;2.75;;;25.40;99.90;;;;;;4974888;28;20101;-69
2023/09/16 11:50:00;;;;;;;4.38;2.78;;;25.50;99.90;;;;;;4991386;28;20034;-69
2023/09/16 11:52:25;;;;;;;6.18;2.70;;;25.20;99.90;;;;;;4992648;28;20038;-70
2023/09/16 11:54:52;;;;;;;6.90;3.28;;;25.80;99.90;;;;;;4993704;28;20034;-70
2023/09/16 11:57:18;;;;;;;4.22;2.70;;;25.40;99.90;;;;;;4993941;28;20483;-70
2023/09/16 11:59:46;;;;;;;6.15;2.55;;;25.80;99.90;;;;;;4992967;28;20085;-69
2023/09/16 12:02:11;;;;;;;3.80;2.13;;;25.80;99.90;;;;;;4975265;28;20057;-70
2023/09/16 12:04:39;;;;;;;3.22;2.13;;;25.90;99.90;;;;;;4990692;28;20121;-69
2023/09/16 12:07:05;;;;;;;3.08;2.50;;;26.00;99.90;;;;;;4990896;28;20042;-71
2023/09/16 12:09:33;;;;;;;4.68;2.20;;;25.80;99.90;;;;;;4993750;28;20039;-70
2023/09/16 12:11:59;;;;;;;1.95;1.80;;;26.00;99.90;;;;;;4991519;28;20494;-69
2023/09/16 12:14:24;;;;;;;2.97;2.10;;;25.90;99.90;;;;;;4991641;28;20077;-70
2023/09/16 12:16:52;;;;;;;4.03;2.15;;;25.80;99.90;;;;;;4991561;28;20454;-69
2023/09/16 12:19:17;;;;;;;3.53;2.03;;;25.90;99.90;;;;;;5001535;28;20039;-70
2023/09/16 12:21:47;;;;;;;4.68;2.65;;;25.70;99.90;;;;;;4999910;28;20049;-70
2023/09/16 12:24:20;;;;;;;2.75;2.17;;;25.50;99.90;;;;;;5000754;28;20121;-70
2023/09/16 12:26:47;;;;;;;6.15;2.30;;;26.10;99.90;;;;;;4998135;28;20114;-70
2023/09/16 12:29:13;;;;;;;5.57;2.70;;;25.70;99.90;;;;;;4991503;28;20093;-70
2023/09/16 12:31:39;;;;;;;5.43;2.97;;;25.60;99.90;;;;;;4992722;28;20081;-70
2023/09/16 12:34:04;;;;;;;5.60;2.88;;;25.40;99.90;;;;;;4991619;28;20125;-70
2023/09/16 12:36:30;;;;;;;4.13;2.45;;;25.70;99.90;;;;;;4975102;28;20050;-70